createdAt,value
2019-02-06T00:00:46.512Z,70.38
2019-02-06T00:01:45.856Z,70.29
2019-02-06T00:02:20.569Z,70.53
2019-02-06T00:02:55.031Z,70.48
2019-02-06T00:03:29.675Z,70.48
2019-02-06T00:04:04.276Z,70.35
2019-02-06T00:04:38.898Z,70.33
2019-02-06T00:05:14.328Z,70.30
2019-02-06T00:05:49.428Z,70.34
2019-02-06T00:06:23.819Z,70.39
2019-02-06T00:06:58.570Z,70.47
2019-02-06T00:07:32.914Z,70.46
2019-02-06T00:08:07.843Z,70.53
2019-02-06T00:08:42.316Z,70.68
2019-02-06T00:09:17.665Z,70.79
2019-02-06T00:09:52.019Z,70.81
2019-02-06T00:10:26.647Z,70.87
2019-02-06T00:11:01.333Z,70.92
2019-02-06T00:11:35.999Z,71.00
2019-02-06T00:12:10.339Z,71.00
2019-02-06T00:12:44.981Z,70.92
2019-02-06T00:13:19.299Z,70.87
2019-02-06T00:13:54.624Z,70.76
2019-02-06T00:14:29.167Z,70.82
2019-02-06T00:15:04.351Z,70.79
2019-02-06T00:15:38.989Z,70.90
2019-02-06T00:16:13.873Z,70.97
2019-02-06T00:16:48.209Z,70.89
2019-02-06T00:17:22.519Z,70.90
2019-02-06T00:17:57.222Z,70.97
2019-02-06T00:18:32.033Z,71.04
2019-02-06T00:19:06.485Z,71.05
2019-02-06T00:19:41.073Z,71.00
2019-02-06T00:20:15.487Z,70.99
2019-02-06T00:20:49.762Z,71.00
2019-02-06T00:21:24.371Z,71.07
2019-02-06T00:21:58.736Z,71.17
2019-02-06T00:22:33.489Z,71.23
2019-02-06T00:23:08.179Z,71.31
2019-02-06T00:23:42.798Z,71.28
2019-02-06T00:24:17.546Z,71.27
2019-02-06T00:24:51.934Z,71.31
2019-02-06T00:25:26.547Z,71.21
2019-02-06T00:26:00.954Z,71.14
2019-02-06T00:26:35.762Z,71.07
2019-02-06T00:27:10.096Z,71.12
2019-02-06T00:27:44.808Z,71.11
2019-02-06T00:28:19.437Z,71.07
2019-02-06T00:28:54.495Z,71.20
2019-02-06T00:29:28.831Z,71.25
2019-02-06T00:30:05.227Z,71.35
2019-02-06T00:30:39.567Z,71.51
2019-02-06T00:31:14.092Z,71.49
2019-02-06T00:31:48.736Z,71.47
2019-02-06T00:32:23.491Z,71.50
2019-02-06T00:32:57.856Z,71.53
2019-02-06T00:33:32.594Z,71.59
2019-02-06T00:34:06.969Z,71.63
2019-02-06T00:34:41.488Z,71.61
2019-02-06T00:35:25.499Z,71.65
2019-02-06T00:35:52.375Z,71.72
2019-02-06T00:36:26.780Z,71.71
2019-02-06T00:37:01.214Z,71.71
2019-02-06T00:37:35.577Z,71.86
2019-02-06T00:38:09.926Z,71.81
2019-02-06T00:38:44.528Z,71.71
2019-02-06T00:39:18.875Z,71.66
2019-02-06T00:39:53.515Z,71.60
2019-02-06T00:40:28.134Z,71.62
2019-02-06T00:41:03.149Z,71.48
2019-02-06T00:41:37.555Z,71.44
2019-02-06T00:42:11.911Z,71.56
2019-02-06T00:42:46.280Z,71.63
2019-02-06T00:43:20.899Z,71.69
2019-02-06T00:43:55.503Z,71.79
2019-02-06T00:44:29.923Z,71.81
2019-02-06T00:45:04.871Z,71.95
2019-02-06T00:45:39.208Z,71.92
2019-02-06T00:46:13.556Z,71.84
2019-02-06T00:46:47.989Z,71.81
2019-02-06T00:47:22.398Z,71.78
2019-02-06T00:47:56.809Z,71.72
2019-02-06T00:48:31.241Z,71.72
2019-02-06T00:49:05.831Z,71.67
2019-02-06T00:49:40.481Z,71.77
2019-02-06T00:50:15.256Z,71.76
2019-02-06T00:50:49.602Z,71.72
2019-02-06T00:51:23.958Z,71.65
2019-02-06T00:51:58.494Z,71.61
2019-02-06T00:52:33.008Z,71.49
2019-02-06T00:53:07.671Z,71.56
2019-02-06T00:53:42.022Z,71.62
2019-02-06T00:54:16.647Z,71.60
2019-02-06T00:54:51.257Z,71.64
2019-02-06T00:55:25.648Z,71.70
2019-02-06T00:56:00.139Z,71.80
2019-02-06T00:56:34.605Z,71.88
2019-02-06T00:57:08.988Z,71.97
2019-02-06T00:57:43.339Z,72.00
2019-02-06T00:58:17.678Z,72.02
2019-02-06T00:58:52.352Z,71.96
2019-02-06T00:59:26.733Z,71.83
2019-02-06T01:00:01.143Z,71.72
2019-02-06T01:00:35.615Z,71.61
2019-02-06T01:01:10.404Z,71.62
2019-02-06T01:01:44.976Z,71.64
2019-02-06T01:02:19.523Z,71.59
2019-02-06T01:02:54.017Z,71.59
2019-02-06T01:03:28.366Z,71.54
2019-02-06T01:04:02.842Z,71.39
2019-02-06T01:04:37.337Z,71.29
2019-02-06T01:05:14.081Z,71.49
2019-02-06T01:05:48.634Z,71.61
2019-02-06T01:06:22.994Z,71.75
2019-02-06T01:06:57.350Z,71.91
2019-02-06T01:07:32.058Z,71.91
2019-02-06T01:08:06.583Z,72.02
2019-02-06T01:08:40.904Z,72.12
2019-02-06T01:09:15.258Z,72.16
2019-02-06T01:09:49.692Z,72.11
2019-02-06T01:10:24.094Z,72.09
2019-02-06T01:10:58.461Z,72.01
2019-02-06T01:11:32.833Z,71.97
2019-02-06T01:12:07.524Z,72.09
2019-02-06T01:12:41.858Z,71.94
2019-02-06T01:13:16.199Z,71.79
2019-02-06T01:13:50.809Z,71.78
2019-02-06T01:14:25.116Z,71.85
2019-02-06T01:14:59.500Z,71.92
2019-02-06T01:15:33.901Z,72.01
2019-02-06T01:16:08.583Z,72.01
2019-02-06T01:16:42.916Z,72.04
2019-02-06T01:17:17.374Z,72.06
2019-02-06T01:17:51.715Z,72.04
2019-02-06T01:18:26.064Z,71.77
2019-02-06T01:19:00.484Z,71.70
2019-02-06T01:19:34.934Z,71.69
2019-02-06T01:20:10.122Z,71.72
2019-02-06T01:20:44.481Z,71.89
2019-02-06T01:21:18.819Z,72.07
2019-02-06T01:21:53.196Z,72.26
2019-02-06T01:22:27.654Z,72.39
2019-02-06T01:23:02.414Z,72.43
2019-02-06T01:23:37.142Z,72.42
2019-02-06T01:24:11.668Z,72.46
2019-02-06T01:24:46.282Z,72.52
2019-02-06T01:25:20.908Z,72.58
2019-02-06T01:25:55.511Z,72.50
2019-02-06T01:26:30.386Z,72.57
2019-02-06T01:27:05.033Z,72.62
2019-02-06T01:27:39.468Z,72.40
2019-02-06T01:28:13.815Z,72.36
2019-02-06T01:28:48.331Z,72.42
2019-02-06T01:29:22.685Z,72.51
2019-02-06T01:29:57.266Z,72.50
2019-02-06T01:30:37.112Z,72.47
2019-02-06T01:31:15.537Z,72.55
2019-02-06T01:31:49.837Z,72.57
2019-02-06T01:32:24.434Z,72.43
2019-02-06T01:32:58.783Z,72.23
2019-02-06T01:33:33.152Z,72.25
2019-02-06T01:34:07.547Z,72.25
2019-02-06T01:34:41.873Z,72.23
2019-02-06T01:35:16.464Z,72.28
2019-02-06T01:35:50.815Z,72.26
2019-02-06T01:36:25.235Z,72.27
2019-02-06T01:37:00.115Z,72.24
2019-02-06T01:37:34.503Z,72.16
2019-02-06T01:38:08.857Z,72.22
2019-02-06T01:38:43.203Z,72.27
2019-02-06T01:39:17.536Z,72.22
2019-02-06T01:39:51.975Z,72.13
2019-02-06T01:40:26.322Z,71.95
2019-02-06T01:41:00.732Z,71.91
2019-02-06T01:41:35.125Z,72.01
2019-02-06T01:42:09.816Z,72.17
2019-02-06T01:42:44.348Z,72.26
2019-02-06T01:43:18.697Z,72.34
2019-02-06T01:43:53.126Z,72.36
2019-02-06T01:44:27.507Z,72.38
2019-02-06T01:45:02.279Z,72.41
2019-02-06T01:45:36.716Z,72.58
2019-02-06T01:46:11.094Z,72.72
2019-02-06T01:46:46.046Z,72.69
2019-02-06T01:47:20.481Z,72.69
2019-02-06T01:47:55.136Z,72.74
2019-02-06T01:48:29.777Z,72.73
2019-02-06T01:49:04.584Z,72.73
2019-02-06T01:49:39.060Z,72.76
2019-02-06T01:50:15.377Z,72.75
2019-02-06T01:50:49.678Z,72.71
2019-02-06T01:51:24.022Z,72.71
2019-02-06T01:51:58.718Z,72.69
2019-02-06T01:52:33.089Z,72.73
2019-02-06T01:53:07.470Z,72.78
2019-02-06T01:53:41.931Z,72.83
2019-02-06T01:54:16.304Z,72.95
2019-02-06T01:54:50.765Z,72.94
2019-02-06T01:55:25.455Z,72.84
2019-02-06T01:55:59.867Z,72.85
2019-02-06T01:56:34.226Z,72.87
2019-02-06T01:57:08.917Z,72.98
2019-02-06T01:57:43.281Z,72.86
2019-02-06T01:58:17.879Z,72.74
2019-02-06T01:58:52.257Z,72.71
2019-02-06T01:59:26.864Z,72.77
2019-02-06T02:00:01.273Z,72.86
2019-02-06T02:00:35.942Z,72.69
2019-02-06T02:01:10.335Z,72.55
2019-02-06T02:01:44.709Z,72.51
2019-02-06T02:02:19.055Z,72.67
2019-02-06T02:02:53.664Z,72.57
2019-02-06T02:03:28.313Z,72.50
2019-02-06T02:04:02.936Z,72.39
2019-02-06T02:04:37.350Z,72.37
2019-02-06T02:05:12.758Z,72.39
2019-02-06T02:05:47.478Z,72.37
2019-02-06T02:06:21.900Z,72.38
2019-02-06T02:06:56.555Z,72.35
2019-02-06T02:07:31.012Z,72.30
2019-02-06T02:08:05.715Z,72.16
2019-02-06T02:08:45.993Z,72.11
2019-02-06T02:09:20.694Z,72.18
2019-02-06T02:09:55.171Z,72.24
2019-02-06T02:10:29.941Z,72.20
2019-02-06T02:11:05.051Z,72.25
2019-02-06T02:11:39.469Z,72.37
2019-02-06T02:12:13.979Z,72.53
2019-02-06T02:12:48.463Z,72.57
2019-02-06T02:13:23.128Z,72.67
2019-02-06T02:13:58.065Z,72.77
2019-02-06T02:14:32.491Z,72.79
2019-02-06T02:15:09.015Z,72.86
2019-02-06T02:15:43.629Z,73.05
2019-02-06T02:16:18.337Z,73.18
2019-02-06T02:16:52.723Z,73.19
2019-02-06T02:17:27.669Z,73.20
2019-02-06T02:18:02.453Z,73.24
2019-02-06T02:18:36.859Z,73.31
2019-02-06T02:19:11.554Z,73.38
2019-02-06T02:19:46.067Z,73.41
2019-02-06T02:20:21.989Z,73.50
2019-02-06T02:20:56.375Z,73.55
2019-02-06T02:21:30.835Z,73.47
2019-02-06T02:22:05.549Z,73.56
2019-02-06T02:22:40.050Z,73.60
2019-02-06T02:23:14.413Z,73.71
2019-02-06T02:23:49.072Z,73.82
2019-02-06T02:24:24.035Z,73.92
2019-02-06T02:24:58.777Z,73.93
2019-02-06T02:25:33.817Z,73.90
2019-02-06T02:26:08.362Z,73.92
2019-02-06T02:26:43.058Z,73.97
2019-02-06T02:27:17.686Z,74.15
2019-02-06T02:27:52.161Z,74.28
2019-02-06T02:28:26.531Z,74.34
2019-02-06T02:29:01.226Z,74.31
2019-02-06T02:29:35.755Z,74.18
2019-02-06T02:30:12.015Z,74.15
2019-02-06T02:30:49.854Z,74.25
2019-02-06T02:31:24.539Z,74.23
2019-02-06T02:31:59.009Z,74.09
2019-02-06T02:32:33.582Z,74.02
2019-02-06T02:33:08.060Z,73.96
2019-02-06T02:33:42.671Z,73.99
2019-02-06T02:34:17.141Z,74.06
2019-02-06T02:34:51.555Z,74.12
2019-02-06T02:35:26.195Z,74.15
2019-02-06T02:36:00.926Z,74.24
2019-02-06T02:36:35.443Z,74.31
2019-02-06T02:37:09.873Z,74.38
2019-02-06T02:37:44.269Z,74.40
2019-02-06T02:38:18.636Z,74.45
2019-02-06T02:38:53.026Z,74.57
2019-02-06T02:39:27.418Z,74.60
2019-02-06T02:40:02.451Z,74.69
2019-02-06T02:40:36.840Z,74.76
2019-02-06T02:41:11.552Z,74.75
2019-02-06T02:41:46.040Z,74.70
2019-02-06T02:42:20.421Z,74.71
2019-02-06T02:42:54.899Z,74.79
2019-02-06T02:43:29.336Z,74.81
2019-02-06T02:44:03.798Z,74.84
2019-02-06T02:44:38.211Z,74.83
2019-02-06T02:45:14.633Z,74.67
2019-02-06T02:45:49.620Z,74.58
2019-02-06T02:46:24.091Z,74.47
2019-02-06T02:46:58.867Z,74.45
2019-02-06T02:47:33.586Z,74.46
2019-02-06T02:48:08.287Z,74.57
2019-02-06T02:48:42.931Z,74.60
2019-02-06T02:49:17.782Z,74.64
2019-02-06T02:49:52.164Z,74.78
2019-02-06T02:50:26.845Z,74.83
2019-02-06T02:51:01.375Z,74.85
2019-02-06T02:51:36.602Z,74.88
2019-02-06T02:52:11.248Z,74.89
2019-02-06T02:52:46.046Z,74.92
2019-02-06T02:53:20.454Z,74.92
2019-02-06T02:53:55.158Z,74.89
2019-02-06T02:54:30.222Z,74.96
2019-02-06T02:55:05.747Z,74.90
2019-02-06T02:55:40.129Z,74.77
2019-02-06T02:56:15.053Z,74.55
2019-02-06T02:56:49.684Z,74.51
2019-02-06T02:57:24.350Z,74.57
2019-02-06T02:57:59.045Z,74.39
2019-02-06T02:58:33.759Z,74.26
2019-02-06T02:59:08.456Z,74.19
2019-02-06T02:59:43.377Z,74.17
2019-02-06T03:00:19.672Z,74.20
2019-02-06T03:01:15.854Z,74.18
2019-02-06T03:01:56.840Z,74.14
2019-02-06T03:02:59.331Z,74.23
2019-02-06T03:03:43.293Z,74.38
2019-02-06T03:04:28.316Z,74.30
2019-02-06T03:05:06.772Z,74.32
2019-02-06T03:05:41.174Z,74.41
2019-02-06T03:06:27.140Z,74.50
2019-02-06T03:06:51.727Z,74.50
2019-02-06T03:07:26.205Z,74.59
2019-02-06T03:08:00.659Z,74.68
2019-02-06T03:08:35.053Z,74.68
2019-02-06T03:09:13.192Z,74.63
2019-02-06T03:09:47.566Z,74.43
2019-02-06T03:10:21.951Z,74.34
2019-02-06T03:10:56.331Z,74.29
2019-02-06T03:11:31.137Z,74.28
2019-02-06T03:12:05.568Z,74.33
2019-02-06T03:12:40.016Z,74.46
2019-02-06T03:13:14.331Z,74.51
2019-02-06T03:13:48.716Z,74.49
2019-02-06T03:14:23.331Z,74.50
2019-02-06T03:14:57.673Z,74.48
2019-02-06T03:15:32.466Z,74.51
2019-02-06T03:16:06.873Z,74.54
2019-02-06T03:16:41.218Z,74.59
2019-02-06T03:17:15.589Z,74.67
2019-02-06T03:17:50.196Z,74.80
2019-02-06T03:18:24.645Z,74.85
2019-02-06T03:18:58.991Z,74.91
2019-02-06T03:19:33.356Z,74.95
2019-02-06T03:20:09.300Z,74.96
2019-02-06T03:20:44.135Z,74.91
2019-02-06T03:21:18.467Z,74.91
2019-02-06T03:21:52.827Z,74.91
2019-02-06T03:22:27.169Z,74.78
2019-02-06T03:23:01.948Z,74.79
2019-02-06T03:23:36.349Z,74.75
2019-02-06T03:24:10.687Z,74.63
2019-02-06T03:24:45.044Z,74.43
2019-02-06T03:25:19.391Z,74.31
2019-02-06T03:25:53.977Z,74.41
2019-02-06T03:26:28.366Z,74.44
2019-02-06T03:27:02.857Z,74.44
2019-02-06T03:27:37.219Z,74.46
2019-02-06T03:28:11.553Z,74.43
2019-02-06T03:28:46.154Z,74.30
2019-02-06T03:29:20.484Z,74.21
2019-02-06T03:29:54.835Z,74.18
2019-02-06T03:30:29.195Z,74.08
2019-02-06T03:31:03.600Z,74.11
2019-02-06T03:31:37.951Z,74.17
2019-02-06T03:32:12.575Z,74.23
2019-02-06T03:32:46.939Z,74.26
2019-02-06T03:33:21.292Z,74.22
2019-02-06T03:33:55.906Z,74.12
2019-02-06T03:34:30.321Z,74.08
2019-02-06T03:35:05.950Z,74.06
2019-02-06T03:35:40.363Z,73.99
2019-02-06T03:36:14.764Z,74.12
2019-02-06T03:36:49.085Z,74.11
2019-02-06T03:37:23.672Z,74.18
2019-02-06T03:37:58.326Z,74.23
2019-02-06T03:38:32.714Z,74.25
2019-02-06T03:39:09.260Z,74.30
2019-02-06T03:39:43.627Z,74.41
2019-02-06T03:40:18.184Z,74.46
2019-02-06T03:40:52.514Z,74.40
2019-02-06T03:41:26.962Z,74.53
2019-02-06T03:42:01.348Z,74.59
2019-02-06T03:42:35.732Z,74.61
2019-02-06T03:43:10.073Z,74.58
2019-02-06T03:43:44.420Z,74.64
2019-02-06T03:44:18.739Z,74.73
2019-02-06T03:44:53.110Z,74.67
2019-02-06T03:45:27.733Z,74.58
2019-02-06T03:46:02.160Z,74.41
2019-02-06T03:46:36.508Z,74.30
2019-02-06T03:47:10.867Z,74.26
2019-02-06T03:47:45.245Z,74.29
2019-02-06T03:48:19.586Z,74.29
2019-02-06T03:48:53.947Z,74.33
2019-02-06T03:49:28.389Z,74.29
2019-02-06T03:50:02.836Z,74.29
2019-02-06T03:50:37.423Z,74.25
2019-02-06T03:51:11.779Z,74.12
2019-02-06T03:51:46.384Z,74.02
2019-02-06T03:52:20.733Z,74.09
2019-02-06T03:52:55.150Z,74.22
2019-02-06T03:53:29.604Z,74.30
2019-02-06T03:54:04.509Z,74.24
2019-02-06T03:54:39.123Z,74.28
2019-02-06T03:55:13.494Z,74.29
2019-02-06T03:55:48.115Z,74.37
2019-02-06T03:56:22.475Z,74.29
2019-02-06T03:56:56.924Z,74.29
2019-02-06T03:57:31.295Z,74.31
2019-02-06T03:58:06.139Z,74.31
2019-02-06T03:58:40.514Z,74.35
2019-02-06T03:59:14.872Z,74.46
2019-02-06T03:59:49.202Z,74.50
2019-02-06T04:00:23.545Z,74.51
2019-02-06T04:00:57.873Z,74.47
2019-02-06T04:01:32.340Z,74.48
2019-02-06T04:02:07.034Z,74.44
2019-02-06T04:02:41.376Z,74.41
2019-02-06T04:03:15.700Z,74.33
2019-02-06T04:03:50.040Z,74.34
2019-02-06T04:04:24.366Z,74.27
2019-02-06T04:04:58.708Z,74.22
2019-02-06T04:05:33.097Z,74.21
2019-02-06T04:06:07.540Z,74.21
2019-02-06T04:06:53.658Z,74.24
2019-02-06T04:07:17.924Z,74.26
2019-02-06T04:07:52.854Z,74.13
2019-02-06T04:08:27.185Z,74.08
2019-02-06T04:09:01.576Z,74.10
2019-02-06T04:09:35.928Z,74.21
2019-02-06T04:10:12.203Z,74.28
2019-02-06T04:10:46.608Z,74.32
2019-02-06T04:11:21.191Z,74.31
2019-02-06T04:11:55.528Z,74.25
2019-02-06T04:12:29.952Z,74.27
2019-02-06T04:13:04.299Z,74.28
2019-02-06T04:13:38.677Z,74.20
2019-02-06T04:14:13.026Z,74.18
2019-02-06T04:14:47.649Z,74.24
2019-02-06T04:15:22.110Z,74.32
2019-02-06T04:15:56.701Z,74.38
2019-02-06T04:16:31.148Z,74.43
2019-02-06T04:17:05.655Z,74.51
2019-02-06T04:17:39.951Z,74.58
2019-02-06T04:18:14.289Z,74.64
2019-02-06T04:18:48.728Z,74.62
2019-02-06T04:19:23.056Z,74.66
2019-02-06T04:19:57.522Z,74.66
2019-02-06T04:20:31.904Z,74.60
2019-02-06T04:21:06.533Z,74.56
2019-02-06T04:21:40.902Z,74.52
2019-02-06T04:22:15.511Z,74.38
2019-02-06T04:22:50.253Z,74.31
2019-02-06T04:23:24.625Z,74.36
2019-02-06T04:23:58.952Z,74.39
2019-02-06T04:24:33.357Z,74.29
2019-02-06T04:25:07.860Z,74.27
2019-02-06T04:25:42.215Z,74.31
2019-02-06T04:26:16.804Z,74.38
2019-02-06T04:26:51.138Z,74.43
2019-02-06T04:27:26.054Z,74.49
2019-02-06T04:28:00.489Z,74.46
2019-02-06T04:28:34.842Z,74.21
2019-02-06T04:29:09.226Z,73.96
2019-02-06T04:29:43.839Z,73.87
2019-02-06T04:30:18.410Z,73.78
2019-02-06T04:30:52.776Z,73.71
2019-02-06T04:31:27.157Z,73.74
2019-02-06T04:32:01.797Z,73.73
2019-02-06T04:32:36.178Z,73.71
2019-02-06T04:33:10.538Z,73.72
2019-02-06T04:33:44.868Z,73.66
2019-02-06T04:34:19.229Z,73.71
2019-02-06T04:34:53.551Z,73.85
2019-02-06T04:35:27.934Z,73.92
2019-02-06T04:36:02.328Z,73.83
2019-02-06T04:36:37.047Z,73.64
2019-02-06T04:37:11.376Z,73.64
2019-02-06T04:37:45.857Z,73.68
2019-02-06T04:38:20.199Z,73.66
2019-02-06T04:38:54.829Z,73.61
2019-02-06T04:39:29.490Z,73.66
2019-02-06T04:40:04.670Z,73.65
2019-02-06T04:40:39.322Z,73.59
2019-02-06T04:41:13.734Z,73.49
2019-02-06T04:41:48.151Z,73.44
2019-02-06T04:42:22.518Z,73.53
2019-02-06T04:42:57.113Z,73.67
2019-02-06T04:43:31.764Z,73.73
2019-02-06T04:44:06.355Z,73.86
2019-02-06T04:44:40.682Z,73.96
2019-02-06T04:45:16.147Z,74.08
2019-02-06T04:45:50.617Z,74.00
2019-02-06T04:46:24.961Z,73.93
2019-02-06T04:46:59.680Z,74.25
2019-02-06T04:47:34.036Z,74.41
2019-02-06T04:48:08.555Z,74.32
2019-02-06T04:48:43.027Z,74.42
2019-02-06T04:49:17.332Z,74.58
2019-02-06T04:49:51.672Z,74.73
2019-02-06T04:50:26.283Z,74.68
2019-02-06T04:51:00.971Z,74.70
2019-02-06T04:51:35.388Z,74.76
2019-02-06T04:52:09.733Z,74.85
2019-02-06T04:52:44.071Z,74.85
2019-02-06T04:53:18.502Z,74.82
2019-02-06T04:53:52.861Z,74.95
2019-02-06T04:54:27.211Z,75.09
2019-02-06T04:55:01.948Z,75.11
2019-02-06T04:55:36.347Z,75.19
2019-02-06T04:56:10.709Z,75.12
2019-02-06T04:56:45.055Z,75.10
2019-02-06T04:57:19.406Z,75.11
2019-02-06T04:57:53.791Z,75.09
2019-02-06T04:58:28.480Z,75.12
2019-02-06T04:59:03.099Z,75.25
2019-02-06T04:59:37.719Z,75.22
2019-02-06T05:00:18.503Z,75.33
2019-02-06T05:00:53.202Z,75.47
2019-02-06T05:01:27.595Z,75.49
2019-02-06T05:02:01.996Z,75.54
2019-02-06T05:02:36.493Z,75.34
2019-02-06T05:03:10.911Z,75.29
2019-02-06T05:03:45.274Z,75.24
2019-02-06T05:04:19.614Z,75.31
2019-02-06T05:04:53.959Z,75.37
2019-02-06T05:05:28.477Z,75.50
2019-02-06T05:06:02.866Z,75.47
2019-02-06T05:06:37.227Z,75.34
2019-02-06T05:07:19.347Z,75.30
2019-02-06T05:07:47.598Z,75.36
2019-02-06T05:08:22.193Z,75.35
2019-02-06T05:08:57.607Z,75.37
2019-02-06T05:09:32.034Z,75.42
2019-02-06T05:10:07.579Z,75.38
2019-02-06T05:10:41.975Z,75.46
2019-02-06T05:11:16.425Z,75.51
2019-02-06T05:11:50.796Z,75.63
2019-02-06T05:12:25.107Z,75.70
2019-02-06T05:12:59.568Z,75.64
2019-02-06T05:13:33.930Z,75.47
2019-02-06T05:14:08.295Z,75.41
2019-02-06T05:14:42.665Z,75.48
2019-02-06T05:15:17.447Z,75.59
2019-02-06T05:15:51.864Z,75.65
2019-02-06T05:16:26.204Z,75.62
2019-02-06T05:17:00.592Z,75.58
2019-02-06T05:17:35.049Z,75.35
2019-02-06T05:18:09.399Z,75.18
2019-02-06T05:18:43.740Z,75.02
2019-02-06T05:19:18.120Z,74.92
2019-02-06T05:19:52.482Z,75.06
2019-02-06T05:20:37.224Z,75.12
2019-02-06T05:21:13.061Z,75.21
2019-02-06T05:21:47.391Z,75.04
2019-02-06T05:22:21.913Z,74.83
2019-02-06T05:22:56.487Z,74.79
2019-02-06T05:23:31.478Z,74.54
2019-02-06T05:24:05.949Z,74.47
2019-02-06T05:24:40.686Z,74.53
2019-02-06T05:25:15.068Z,74.69
2019-02-06T05:25:49.679Z,74.81
2019-02-06T05:26:24.333Z,74.90
2019-02-06T05:26:59.059Z,74.93
2019-02-06T05:27:33.414Z,74.81
2019-02-06T05:28:08.788Z,74.82
2019-02-06T05:28:43.442Z,74.93
2019-02-06T05:29:18.056Z,75.02
2019-02-06T05:29:52.398Z,75.09
2019-02-06T05:30:27.165Z,75.10
2019-02-06T05:31:01.910Z,74.77
2019-02-06T05:31:36.701Z,74.80
2019-02-06T05:32:11.044Z,74.95
2019-02-06T05:32:45.718Z,75.07
2019-02-06T05:33:20.025Z,75.22
2019-02-06T05:33:54.640Z,74.76
2019-02-06T05:34:29.121Z,74.81
2019-02-06T05:35:03.705Z,74.95
2019-02-06T05:35:38.065Z,75.14
2019-02-06T05:36:12.779Z,75.30
2019-02-06T05:36:50.826Z,75.28
2019-02-06T05:37:31.643Z,75.28
2019-02-06T05:38:00.035Z,75.40
2019-02-06T05:38:34.663Z,75.43
2019-02-06T05:39:09.464Z,75.50
2019-02-06T05:39:43.964Z,75.51
2019-02-06T05:40:18.308Z,75.56
2019-02-06T05:40:52.827Z,75.51
2019-02-06T05:41:27.237Z,75.50
2019-02-06T05:42:01.841Z,75.15
2019-02-06T05:42:36.240Z,75.13
2019-02-06T05:43:10.766Z,75.04
2019-02-06T05:43:45.092Z,75.07
2019-02-06T05:44:19.591Z,75.18
2019-02-06T05:44:53.939Z,75.22
2019-02-06T05:45:28.654Z,75.28
2019-02-06T05:46:03.156Z,75.27
2019-02-06T05:46:37.894Z,75.23
2019-02-06T05:47:12.241Z,75.08
2019-02-06T05:47:47.131Z,75.08
2019-02-06T05:48:21.485Z,75.15
2019-02-06T05:48:56.703Z,75.25
2019-02-06T05:49:32.824Z,75.26
2019-02-06T05:50:08.144Z,75.35
2019-02-06T05:50:42.563Z,75.41
2019-02-06T05:51:17.044Z,75.34
2019-02-06T05:51:52.272Z,75.13
2019-02-06T05:52:26.648Z,75.07
2019-02-06T05:53:01.171Z,75.01
2019-02-06T05:53:35.794Z,74.94
2019-02-06T05:54:10.154Z,75.00
2019-02-06T05:54:44.663Z,75.13
2019-02-06T05:55:19.224Z,75.26
2019-02-06T05:55:53.939Z,75.43
2019-02-06T05:56:28.291Z,75.49
2019-02-06T05:57:03.136Z,75.57
2019-02-06T05:57:37.515Z,75.58
2019-02-06T05:58:12.125Z,75.67
2019-02-06T05:58:46.489Z,75.62
2019-02-06T05:59:20.991Z,75.62
2019-02-06T05:59:55.734Z,75.65
2019-02-06T06:00:37.628Z,75.66
2019-02-06T06:01:12.361Z,75.66
2019-02-06T06:01:46.723Z,75.59
2019-02-06T06:02:21.106Z,75.58
2019-02-06T06:02:55.741Z,75.58
2019-02-06T06:03:30.140Z,75.57
2019-02-06T06:04:04.518Z,75.46
2019-02-06T06:04:38.919Z,75.44
2019-02-06T06:05:13.675Z,75.61
2019-02-06T06:05:48.015Z,75.55
2019-02-06T06:06:22.414Z,75.26
2019-02-06T06:06:56.776Z,75.00
2019-02-06T06:07:44.117Z,75.08
2019-02-06T06:08:07.677Z,75.22
2019-02-06T06:08:42.015Z,75.33
2019-02-06T06:09:16.370Z,75.39
2019-02-06T06:09:50.696Z,75.50
2019-02-06T06:10:25.033Z,75.31
2019-02-06T06:10:59.393Z,75.43
2019-02-06T06:11:33.805Z,75.65
2019-02-06T06:12:08.333Z,75.66
2019-02-06T06:12:42.710Z,75.53
2019-02-06T06:13:18.503Z,75.60
2019-02-06T06:13:53.122Z,75.72
2019-02-06T06:14:27.473Z,75.80
2019-02-06T06:15:01.901Z,75.81
2019-02-06T06:15:36.269Z,75.69
2019-02-06T06:16:10.925Z,75.70
2019-02-06T06:16:45.321Z,75.73
2019-02-06T06:17:19.677Z,75.82
2019-02-06T06:17:54.032Z,75.81
2019-02-06T06:18:28.512Z,75.75
2019-02-06T06:19:03.196Z,75.63
2019-02-06T06:19:37.535Z,75.54
2019-02-06T06:20:12.483Z,75.64
2019-02-06T06:20:46.820Z,75.70
2019-02-06T06:21:21.441Z,75.57
2019-02-06T06:21:56.361Z,75.65
2019-02-06T06:22:30.742Z,75.78
2019-02-06T06:23:05.104Z,75.87
2019-02-06T06:23:39.440Z,75.71
2019-02-06T06:24:13.785Z,75.64
2019-02-06T06:24:48.114Z,75.44
2019-02-06T06:25:22.567Z,75.39
2019-02-06T06:25:57.182Z,75.37
2019-02-06T06:26:31.545Z,75.28
2019-02-06T06:27:06.230Z,75.19
2019-02-06T06:27:40.559Z,74.95
2019-02-06T06:28:15.165Z,75.11
2019-02-06T06:28:49.509Z,75.39
2019-02-06T06:29:23.947Z,75.52
2019-02-06T06:29:58.407Z,75.56
2019-02-06T06:30:32.916Z,75.65
2019-02-06T06:31:07.246Z,75.66
2019-02-06T06:31:41.689Z,75.59
2019-02-06T06:32:16.286Z,75.80
2019-02-06T06:32:51.176Z,75.98
2019-02-06T06:33:25.823Z,76.11
2019-02-06T06:34:00.324Z,76.24
2019-02-06T06:34:34.725Z,76.33
2019-02-06T06:35:10.010Z,76.41
2019-02-06T06:35:44.657Z,76.49
2019-02-06T06:36:19.699Z,76.56
2019-02-06T06:36:56.715Z,76.58
2019-02-06T06:37:30.446Z,76.62
2019-02-06T06:38:04.850Z,76.59
2019-02-06T06:38:39.178Z,76.58
2019-02-06T06:39:13.523Z,76.59
2019-02-06T06:39:47.873Z,76.43
2019-02-06T06:40:22.727Z,75.98
2019-02-06T06:40:57.369Z,75.76
2019-02-06T06:41:31.752Z,75.72
2019-02-06T06:42:06.258Z,75.86
2019-02-06T06:42:40.862Z,75.96
2019-02-06T06:43:16.227Z,76.05
2019-02-06T06:43:50.851Z,76.11
2019-02-06T06:44:25.481Z,76.20
2019-02-06T06:44:59.833Z,76.22
2019-02-06T06:45:34.190Z,76.28
2019-02-06T06:46:08.560Z,76.36
2019-02-06T06:46:43.253Z,76.35
2019-02-06T06:47:17.894Z,76.42
2019-02-06T06:47:52.439Z,76.39
2019-02-06T06:48:26.799Z,76.21
2019-02-06T06:49:01.184Z,76.24
2019-02-06T06:49:35.573Z,76.25
2019-02-06T06:50:12.417Z,76.24
2019-02-06T06:50:46.871Z,76.28
2019-02-06T06:51:21.237Z,76.28
2019-02-06T06:51:55.577Z,76.35
2019-02-06T06:52:30.060Z,76.19
2019-02-06T06:53:04.764Z,76.03
2019-02-06T06:53:39.100Z,75.92
2019-02-06T06:54:13.718Z,75.86
2019-02-06T06:54:48.170Z,75.80
2019-02-06T06:55:22.585Z,75.77
2019-02-06T06:55:56.942Z,75.74
2019-02-06T06:56:31.607Z,75.32
2019-02-06T06:57:05.989Z,75.23
2019-02-06T06:57:40.325Z,75.21
2019-02-06T06:58:14.660Z,75.08
2019-02-06T06:58:48.995Z,75.03
2019-02-06T06:59:23.351Z,75.03
2019-02-06T06:59:57.662Z,75.07
2019-02-06T07:00:32.596Z,75.13
2019-02-06T07:01:07.407Z,75.14
2019-02-06T07:01:41.779Z,75.05
2019-02-06T07:02:16.147Z,74.69
2019-02-06T07:02:50.809Z,74.46
2019-02-06T07:03:25.253Z,74.04
2019-02-06T07:03:59.933Z,74.04
2019-02-06T07:04:34.467Z,74.04
2019-02-06T07:05:09.242Z,74.08
2019-02-06T07:05:43.591Z,74.08
2019-02-06T07:06:18.003Z,74.08
2019-02-06T07:06:52.337Z,74.02
2019-02-06T07:07:26.698Z,74.00
2019-02-06T07:08:09.122Z,73.98
2019-02-06T07:08:37.510Z,73.99
2019-02-06T07:09:12.227Z,73.71
2019-02-06T07:09:46.825Z,73.58
2019-02-06T07:10:21.520Z,73.43
2019-02-06T07:10:55.886Z,73.37
2019-02-06T07:11:30.330Z,73.33
2019-02-06T07:12:05.121Z,73.10
2019-02-06T07:12:39.498Z,73.01
2019-02-06T07:13:14.127Z,72.99
2019-02-06T07:13:51.481Z,72.94
2019-02-06T07:14:24.788Z,72.99
2019-02-06T07:14:59.187Z,72.98
2019-02-06T07:15:34.824Z,73.06
2019-02-06T07:16:09.180Z,73.11
2019-02-06T07:16:43.518Z,73.14
2019-02-06T07:17:17.870Z,73.08
2019-02-06T07:17:52.265Z,73.05
2019-02-06T07:18:27.030Z,73.19
2019-02-06T07:19:01.508Z,73.46
2019-02-06T07:19:35.904Z,73.39
2019-02-06T07:20:12.186Z,73.31
2019-02-06T07:20:46.525Z,73.39
2019-02-06T07:21:20.860Z,73.58
2019-02-06T07:21:55.189Z,73.58
2019-02-06T07:22:29.701Z,73.63
2019-02-06T07:23:04.479Z,73.71
2019-02-06T07:23:39.155Z,73.65
2019-02-06T07:24:13.512Z,73.71
2019-02-06T07:24:48.131Z,73.87
2019-02-06T07:25:22.496Z,73.87
2019-02-06T07:25:56.829Z,73.83
2019-02-06T07:26:31.209Z,73.80
2019-02-06T07:27:05.858Z,73.78
2019-02-06T07:27:40.223Z,73.69
2019-02-06T07:28:14.649Z,73.65